createdAt,value
2023-03-14T00:00:06.898Z,5.13
2023-03-14T00:02:34.872Z,5.87
2023-03-14T00:05:03.543Z,5.27
2023-03-14T00:07:35.001Z,5.40
2023-03-14T00:10:05.333Z,2.50
2023-03-14T00:12:33.939Z,4.43
2023-03-14T00:15:04.636Z,2.10
2023-03-14T00:17:33.205Z,4.77
2023-03-14T00:20:05.694Z,2.23
2023-03-14T00:22:33.945Z,1.93
2023-03-14T00:25:01.790Z,4.53
2023-03-14T00:27:29.786Z,3.77
2023-03-14T00:29:57.794Z,5.43
2023-03-14T00:32:27.127Z,3.23
2023-03-14T00:34:55.181Z,3.43
2023-03-14T00:37:23.104Z,3.47
2023-03-14T00:39:53.182Z,2.27
2023-03-14T00:42:21.254Z,3.57
2023-03-14T00:44:49.257Z,3.90
2023-03-14T00:47:17.149Z,3.23
2023-03-14T00:49:46.436Z,3.33
2023-03-14T00:52:14.438Z,4.57
2023-03-14T00:54:42.352Z,2.67
2023-03-14T00:57:10.574Z,3.27
2023-03-14T00:59:38.459Z,2.93
2023-03-14T01:02:06.372Z,3.40
2023-03-14T01:04:34.367Z,1.63
2023-03-14T01:07:03.697Z,3.73
2023-03-14T01:09:31.547Z,1.63
2023-03-14T01:11:59.494Z,2.37
2023-03-14T01:14:27.480Z,3.13
2023-03-14T01:16:55.341Z,1.83
2023-03-14T01:19:23.300Z,4.20
2023-03-14T01:21:51.205Z,4.73
2023-03-14T01:24:20.393Z,4.17
2023-03-14T01:26:48.554Z,3.70
2023-03-14T01:29:16.525Z,3.43
2023-03-14T01:31:44.459Z,2.27
2023-03-14T01:34:12.550Z,1.40
2023-03-14T01:36:40.552Z,4.00
2023-03-14T01:39:09.118Z,2.03
2023-03-14T01:41:38.944Z,1.70
2023-03-14T01:44:07.055Z,1.87
2023-03-14T01:46:39.545Z,2.43
2023-03-14T01:49:22.991Z,2.23
2023-03-14T01:51:58.208Z,1.40
2023-03-14T01:54:30.681Z,2.10
2023-03-14T01:57:07.137Z,1.63
2023-03-14T01:59:36.610Z,2.73
2023-03-14T02:02:08.561Z,1.80
2023-03-14T02:04:38.050Z,2.00
2023-03-14T02:07:10.694Z,2.83
2023-03-14T02:09:39.168Z,2.07
2023-03-14T02:12:10.582Z,1.70
2023-03-14T02:14:39.512Z,0.90
2023-03-14T02:17:08.821Z,1.43
2023-03-14T02:19:51.636Z,1.43
2023-03-14T02:22:19.917Z,2.73
2023-03-14T02:24:57.904Z,3.07
2023-03-14T02:27:30.296Z,4.07
2023-03-14T02:30:02.285Z,3.67
2023-03-14T02:32:33.786Z,2.60
2023-03-14T02:35:05.502Z,1.03
2023-03-14T02:37:37.850Z,1.97
2023-03-14T02:40:06.914Z,1.37
2023-03-14T02:42:36.165Z,4.47
2023-03-14T02:45:35.580Z,2.30
2023-03-14T02:48:08.410Z,1.50
2023-03-14T02:50:36.794Z,1.70
2023-03-14T02:53:04.757Z,2.40
2023-03-14T02:55:32.610Z,2.97
2023-03-14T02:58:02.042Z,2.07
2023-03-14T03:00:31.667Z,3.33
2023-03-14T03:02:59.588Z,2.77
2023-03-14T03:05:27.569Z,2.10
2023-03-14T03:07:55.546Z,2.83
2023-03-14T03:10:23.360Z,2.40
2023-03-14T03:12:52.358Z,1.80
2023-03-14T03:15:21.725Z,3.27
2023-03-14T03:17:49.609Z,1.43
2023-03-14T03:20:17.911Z,1.53
2023-03-14T03:22:45.902Z,1.93
2023-03-14T03:25:13.735Z,3.10
2023-03-14T03:27:41.696Z,2.90
2023-03-14T03:30:10.836Z,1.77
2023-03-14T03:32:40.136Z,1.33
2023-03-14T03:35:08.807Z,0.87
2023-03-14T03:37:37.605Z,0.83
2023-03-14T03:40:07.026Z,1.03
2023-03-14T03:42:35.988Z,0.90
2023-03-14T03:45:04.376Z,0.77
2023-03-14T03:47:32.422Z,1.23
2023-03-14T03:50:01.719Z,0.53
2023-03-14T03:52:29.615Z,1.80
2023-03-14T03:54:57.423Z,1.63
2023-03-14T03:57:25.509Z,1.80
2023-03-14T03:59:53.343Z,0.43
2023-03-14T04:02:21.209Z,1.77
2023-03-14T04:04:49.444Z,1.07
2023-03-14T04:07:18.685Z,0.90
2023-03-14T04:09:46.609Z,1.00
2023-03-14T04:12:14.663Z,1.60
2023-03-14T04:14:43.105Z,2.27
2023-03-14T04:17:10.927Z,2.80
2023-03-14T04:19:39.059Z,0.73
2023-03-14T04:22:06.854Z,1.57
2023-03-14T04:24:36.084Z,1.20
2023-03-14T04:27:04.081Z,2.47
2023-03-14T04:29:31.957Z,2.53
2023-03-14T04:31:59.800Z,1.30
2023-03-14T04:34:27.815Z,1.80
2023-03-14T04:36:55.687Z,3.33
2023-03-14T04:39:23.651Z,2.40
2023-03-14T04:41:53.415Z,1.17
2023-03-14T04:44:21.259Z,1.07
2023-03-14T04:46:49.152Z,0.77
2023-03-14T04:49:17.310Z,1.37
2023-03-14T04:51:45.158Z,2.57
2023-03-14T04:54:13.185Z,1.23
2023-03-14T04:56:41.379Z,3.93
2023-03-14T04:59:10.681Z,2.20
2023-03-14T05:01:38.574Z,1.03
2023-03-14T05:04:06.577Z,1.30
2023-03-14T05:06:34.560Z,1.73
2023-03-14T05:09:02.464Z,3.17
2023-03-14T05:11:32.014Z,2.50
2023-03-14T05:13:59.852Z,3.63
2023-03-14T05:16:29.126Z,3.23
2023-03-14T05:18:57.179Z,2.10
2023-03-14T05:21:25.007Z,2.00
2023-03-14T05:23:52.834Z,1.83
2023-03-14T05:26:21.076Z,3.27
2023-03-14T05:28:48.887Z,3.50
2023-03-14T05:31:16.847Z,2.30
2023-03-14T05:33:46.410Z,3.50
2023-03-14T05:36:14.514Z,3.23
2023-03-14T05:38:42.381Z,3.95
2023-03-14T05:41:10.541Z,5.07
2023-03-14T05:43:38.414Z,3.73
2023-03-14T05:46:06.790Z,3.13
2023-03-14T05:48:34.916Z,3.07
2023-03-14T05:51:04.174Z,2.60
2023-03-14T05:53:32.099Z,3.50
2023-03-14T05:56:00.375Z,3.30
2023-03-14T05:58:28.215Z,2.60
2023-03-14T06:00:56.142Z,1.87
2023-03-14T06:03:24.178Z,2.23
2023-03-14T06:05:52.648Z,5.13
2023-03-14T06:08:21.871Z,4.50
2023-03-14T06:10:49.994Z,4.90
2023-03-14T06:13:17.875Z,2.33
2023-03-14T06:15:45.764Z,4.40
2023-03-14T06:18:15.250Z,3.53
2023-03-14T06:20:43.193Z,10.33
2023-03-14T06:23:11.428Z,6.30
2023-03-14T06:25:40.776Z,4.20
2023-03-14T06:28:08.755Z,3.93
2023-03-14T06:30:36.673Z,5.30
2023-03-14T06:33:04.860Z,3.63
2023-03-14T06:35:32.895Z,2.73
2023-03-14T06:38:00.832Z,3.00
2023-03-14T06:40:28.828Z,5.17
2023-03-14T06:42:58.116Z,3.13
2023-03-14T06:45:25.947Z,4.00
2023-03-14T06:47:53.818Z,3.27
2023-03-14T06:50:23.203Z,1.40
2023-03-14T06:52:51.112Z,2.47
2023-03-14T06:55:21.312Z,1.67
2023-03-14T06:57:50.533Z,4.23
2023-03-14T07:00:21.500Z,2.83
2023-03-14T07:02:52.210Z,3.90
2023-03-14T07:05:20.328Z,3.27
2023-03-14T07:07:48.258Z,2.60
2023-03-14T07:10:17.523Z,2.00
2023-03-14T07:12:45.512Z,1.23
2023-03-14T07:15:18.697Z,1.93
2023-03-14T07:17:50.332Z,1.63
2023-03-14T07:20:18.974Z,1.10
2023-03-14T07:22:50.270Z,2.10
2023-03-14T07:25:18.391Z,0.87
2023-03-14T07:27:46.603Z,3.03
2023-03-14T07:30:15.722Z,2.40
2023-03-14T07:32:43.680Z,2.30
2023-03-14T07:35:13.172Z,2.83
2023-03-14T07:37:41.069Z,4.07
2023-03-14T07:40:11.585Z,3.20
2023-03-14T07:42:39.578Z,2.07
2023-03-14T07:45:08.975Z,3.17
2023-03-14T07:47:36.849Z,0.77
2023-03-14T07:50:05.303Z,1.67
2023-03-14T07:52:34.986Z,1.60
2023-03-14T07:55:02.815Z,0.93
2023-03-14T07:57:31.114Z,0.40
2023-03-14T07:59:59.036Z,2.65
2023-03-14T08:02:26.923Z,1.58
2023-03-14T08:04:55.103Z,0.75
2023-03-14T08:07:23.063Z,1.63
2023-03-14T08:09:52.326Z,3.13
2023-03-14T08:12:20.269Z,3.63
2023-03-14T08:14:48.398Z,2.63
2023-03-14T08:17:16.236Z,0.85
2023-03-14T08:19:44.233Z,0.70
2023-03-14T08:22:12.180Z,0.68
2023-03-14T08:24:40.035Z,1.07
2023-03-14T08:27:11.024Z,1.03
2023-03-14T08:29:39.140Z,0.30
2023-03-14T08:32:07.033Z,1.03
2023-03-14T08:34:35.732Z,0.53
2023-03-14T08:37:06.676Z,0.67
2023-03-14T08:39:39.086Z,0.40
2023-03-14T08:42:07.041Z,0.30
2023-03-14T08:44:36.282Z,0.30
2023-03-14T08:47:04.334Z,0.67
2023-03-14T08:49:32.539Z,0.70
2023-03-14T08:52:00.433Z,0.60
2023-03-14T08:54:29.163Z,0.20
2023-03-14T08:56:57.233Z,0.63
2023-03-14T08:59:25.511Z,0.77
2023-03-14T09:01:55.729Z,1.65
2023-03-14T09:04:23.936Z,1.25
2023-03-14T09:06:51.764Z,0.25
2023-03-14T09:09:19.732Z,0.88
2023-03-14T09:11:47.712Z,0.55
2023-03-14T09:14:16.140Z,0.52
2023-03-14T09:16:44.201Z,2.72
2023-03-14T09:19:13.483Z,1.65
2023-03-14T09:21:41.332Z,0.95
2023-03-14T09:24:09.608Z,0.60
2023-03-14T09:26:37.592Z,0.30
2023-03-14T09:29:05.489Z,0.82
2023-03-14T09:31:33.619Z,0.38
2023-03-14T09:34:01.571Z,0.20
2023-03-14T09:36:30.825Z,0.40
2023-03-14T09:38:58.732Z,2.47
2023-03-14T09:41:30.047Z,0.88
2023-03-14T09:44:05.489Z,0.35
2023-03-14T09:46:37.538Z,1.48
2023-03-14T09:49:13.175Z,0.30
2023-03-14T09:51:44.683Z,0.43
2023-03-14T09:54:25.935Z,0.30
2023-03-14T09:56:54.212Z,0.20
2023-03-14T09:59:22.565Z,0.85
2023-03-14T10:01:50.733Z,2.28
2023-03-14T10:04:25.107Z,0.32
2023-03-14T10:06:54.479Z,0.30
2023-03-14T10:09:26.279Z,0.40
2023-03-14T10:11:57.963Z,0.98
2023-03-14T10:14:34.099Z,1.10
2023-03-14T10:17:09.157Z,0.77
2023-03-14T10:19:37.087Z,1.08
2023-03-14T10:22:08.237Z,1.05
2023-03-14T10:24:37.678Z,0.60
2023-03-14T10:27:08.112Z,0.57
2023-03-14T10:29:36.873Z,0.57
2023-03-14T10:32:08.875Z,0.60
2023-03-14T10:34:38.880Z,2.92
2023-03-14T10:37:18.888Z,0.57
2023-03-14T10:39:49.513Z,0.43
2023-03-14T10:42:23.139Z,1.67
2023-03-14T10:44:56.942Z,0.40
2023-03-14T10:47:27.604Z,1.65
2023-03-14T10:49:55.951Z,0.73
2023-03-14T10:52:31.082Z,0.45
2023-03-14T10:55:13.654Z,0.88
2023-03-14T10:57:41.855Z,0.75
2023-03-14T11:00:18.009Z,1.45
2023-03-14T11:02:56.389Z,0.95
2023-03-14T11:05:32.886Z,0.98
2023-03-14T11:08:06.973Z,0.55
2023-03-14T11:10:38.670Z,0.57
2023-03-14T11:13:17.503Z,0.52
2023-03-14T11:15:55.867Z,0.50
2023-03-14T11:18:50.928Z,0.30
2023-03-14T11:21:25.927Z,1.23
2023-03-14T11:24:10.331Z,1.08
2023-03-14T11:26:44.925Z,2.35
2023-03-14T11:29:23.011Z,1.15
2023-03-14T11:31:51.172Z,0.90
2023-03-14T11:34:24.385Z,0.60
2023-03-14T11:36:55.639Z,1.05
2023-03-14T11:39:28.445Z,0.40
2023-03-14T11:42:04.742Z,0.43
2023-03-14T11:44:39.142Z,0.30
2023-03-14T11:47:13.156Z,0.43
2023-03-14T11:49:46.358Z,0.20
2023-03-14T11:52:20.024Z,0.50
2023-03-14T11:54:54.042Z,0.20
2023-03-14T11:57:26.207Z,0.60
2023-03-14T12:00:01.017Z,0.30
2023-03-14T12:02:38.024Z,0.22
2023-03-14T12:05:30.390Z,0.50
2023-03-14T12:08:32.558Z,0.30
2023-03-14T12:11:05.283Z,0.40
2023-03-14T12:13:38.201Z,0.93
2023-03-14T12:16:08.964Z,0.50
2023-03-14T12:18:40.212Z,0.90
2023-03-14T12:21:10.143Z,0.50
2023-03-14T12:23:43.440Z,0.97
2023-03-14T12:26:19.395Z,0.23
2023-03-14T12:28:52.831Z,0.40
2023-03-14T12:31:43.622Z,0.30
2023-03-14T12:34:33.134Z,2.37
2023-03-14T12:37:22.157Z,0.77
2023-03-14T12:40:12.983Z,1.43
2023-03-14T12:42:54.043Z,0.70
2023-03-14T12:45:28.195Z,0.60
2023-03-14T12:48:11.086Z,0.83
2023-03-14T12:50:44.603Z,0.70
2023-03-14T12:53:43.575Z,2.40
2023-03-14T12:56:23.084Z,0.90
2023-03-14T12:59:03.062Z,0.77
2023-03-14T13:01:31.181Z,0.93
2023-03-14T13:04:04.838Z,0.47
2023-03-14T13:06:54.883Z,0.60
2023-03-14T13:09:54.088Z,1.87
2023-03-14T13:12:28.827Z,1.07
2023-03-14T13:15:01.121Z,0.40
2023-03-14T13:17:36.479Z,0.50
2023-03-14T13:20:14.027Z,1.10
2023-03-14T13:22:49.882Z,0.70
2023-03-14T13:25:19.684Z,0.93
2023-03-14T13:27:47.694Z,2.77
2023-03-14T13:30:20.596Z,1.27
2023-03-14T13:32:50.110Z,1.03
2023-03-14T13:35:24.470Z,1.10
2023-03-14T13:38:11.035Z,1.40
2023-03-14T13:40:39.936Z,1.57
2023-03-14T13:43:16.786Z,0.97
2023-03-14T13:45:54.851Z,4.00
2023-03-14T13:48:24.310Z,0.77
2023-03-14T13:50:55.108Z,0.80
2023-03-14T13:53:23.802Z,1.00
2023-03-14T13:55:52.431Z,0.80
2023-03-14T13:58:29.044Z,1.80
2023-03-14T14:01:01.966Z,2.00
2023-03-14T14:03:32.302Z,0.63
2023-03-14T14:06:00.863Z,0.80
2023-03-14T14:08:29.210Z,1.90
2023-03-14T14:11:02.014Z,1.33
2023-03-14T14:13:34.963Z,0.70
2023-03-14T14:16:05.805Z,1.10
2023-03-14T14:18:35.673Z,1.00
2023-03-14T14:21:04.844Z,0.93
2023-03-14T14:23:33.302Z,0.60
2023-03-14T14:26:01.723Z,1.13
2023-03-14T14:28:31.982Z,1.60
2023-03-14T14:31:21.104Z,0.57
2023-03-14T14:33:56.411Z,2.10
2023-03-14T14:36:26.651Z,0.63
2023-03-14T14:38:56.134Z,0.67
2023-03-14T14:41:28.617Z,3.60
2023-03-14T14:43:58.078Z,1.97
2023-03-14T14:46:30.281Z,2.40
2023-03-14T14:48:59.980Z,1.63
2023-03-14T14:51:33.142Z,1.53
2023-03-14T14:54:06.875Z,4.40
2023-03-14T14:56:39.046Z,3.43
2023-03-14T14:59:09.006Z,0.80
2023-03-14T15:01:40.684Z,1.13
2023-03-14T15:04:14.829Z,1.10
2023-03-14T15:06:45.816Z,2.37
2023-03-14T15:09:13.884Z,0.97
2023-03-14T15:11:41.699Z,1.20
2023-03-14T15:14:09.657Z,1.20
2023-03-14T15:16:40.482Z,1.27
2023-03-14T15:19:24.044Z,2.90
2023-03-14T15:21:53.087Z,2.03
2023-03-14T15:24:21.082Z,1.17
2023-03-14T15:26:49.091Z,1.47
2023-03-14T15:29:17.148Z,1.40
2023-03-14T15:31:46.603Z,2.17
2023-03-14T15:34:14.600Z,5.27
2023-03-14T15:36:42.592Z,1.30
2023-03-14T15:39:13.087Z,8.50
2023-03-14T15:41:40.939Z,2.63
2023-03-14T15:44:08.938Z,1.40
2023-03-14T15:46:36.985Z,2.27
2023-03-14T15:49:06.168Z,1.20
2023-03-14T15:51:34.344Z,1.03
2023-03-14T15:54:02.339Z,2.03
2023-03-14T15:56:32.151Z,3.20
2023-03-14T15:59:00.779Z,2.37
2023-03-14T16:01:28.816Z,1.40
2023-03-14T16:03:56.845Z,1.60
2023-03-14T16:06:26.806Z,1.73
2023-03-14T16:08:54.895Z,2.30
2023-03-14T16:11:23.088Z,1.90
2023-03-14T16:13:51.415Z,1.17
2023-03-14T16:16:19.672Z,1.87
2023-03-14T16:18:47.657Z,3.30
2023-03-14T16:21:17.580Z,1.63
2023-03-14T16:23:47.431Z,1.90
2023-03-14T16:26:17.592Z,3.00
2023-03-14T16:28:46.940Z,2.37
2023-03-14T16:31:17.553Z,2.77
2023-03-14T16:33:45.750Z,2.37
2023-03-14T16:36:15.131Z,2.50
2023-03-14T16:38:44.877Z,1.93
2023-03-14T16:41:16.288Z,2.03
2023-03-14T16:43:44.846Z,2.10
2023-03-14T16:46:17.034Z,2.33
2023-03-14T16:48:45.755Z,2.53
2023-03-14T16:51:14.214Z,2.57
2023-03-14T16:53:42.355Z,2.67
2023-03-14T16:56:11.040Z,4.80
2023-03-14T16:58:40.947Z,6.40
2023-03-14T17:01:11.478Z,3.90
2023-03-14T17:03:40.588Z,4.40
2023-03-14T17:06:09.497Z,5.60
2023-03-14T17:08:37.532Z,3.63
2023-03-14T17:11:05.573Z,4.73
2023-03-14T17:13:33.384Z,4.67
2023-03-14T17:16:03.465Z,4.77
2023-03-14T17:18:32.342Z,4.40
2023-03-14T17:21:01.982Z,4.40
2023-03-14T17:23:32.183Z,5.00
2023-03-14T17:26:00.117Z,3.70
2023-03-14T17:28:28.852Z,5.77
2023-03-14T17:31:06.399Z,4.90
2023-03-14T17:33:34.924Z,3.83
2023-03-14T17:36:03.363Z,5.43
2023-03-14T17:38:31.569Z,6.57
2023-03-14T17:40:59.547Z,3.50
2023-03-14T17:43:27.398Z,3.43
2023-03-14T17:45:59.355Z,5.47
2023-03-14T17:48:28.717Z,4.87
2023-03-14T17:50:59.987Z,5.77
2023-03-14T17:53:29.588Z,2.90
2023-03-14T17:55:57.930Z,3.87
2023-03-14T17:58:27.268Z,4.20
2023-03-14T18:00:55.436Z,2.73
2023-03-14T18:03:23.554Z,3.30
2023-03-14T18:05:52.878Z,3.30
2023-03-14T18:08:21.052Z,3.50
2023-03-14T18:10:49.019Z,3.03
2023-03-14T18:13:16.862Z,2.77
2023-03-14T18:15:44.990Z,2.20
2023-03-14T18:18:12.873Z,5.87
2023-03-14T18:20:40.667Z,2.70
2023-03-14T18:23:10.069Z,2.93
2023-03-14T18:25:37.907Z,2.60
2023-03-14T18:28:05.865Z,2.70
2023-03-14T18:30:33.833Z,3.43
2023-03-14T18:33:01.748Z,2.47
2023-03-14T18:35:29.675Z,2.90
2023-03-14T18:37:58.088Z,3.03
2023-03-14T18:40:27.288Z,3.67
2023-03-14T18:42:56.617Z,2.73
2023-03-14T18:45:24.757Z,3.33
2023-03-14T18:47:52.572Z,3.70
2023-03-14T18:50:20.625Z,3.03
2023-03-14T18:52:48.608Z,3.77
2023-03-14T18:55:16.589Z,3.37
2023-03-14T18:57:45.830Z,3.07
2023-03-14T19:00:16.095Z,3.10
2023-03-14T19:02:43.920Z,3.20
2023-03-14T19:05:13.423Z,3.50
2023-03-14T19:07:42.636Z,3.20
2023-03-14T19:10:12.322Z,3.07
2023-03-14T19:12:40.111Z,3.33
2023-03-14T19:15:12.060Z,4.40
2023-03-14T19:17:39.940Z,2.60
2023-03-14T19:20:08.862Z,3.10
2023-03-14T19:22:36.912Z,3.93
2023-03-14T19:25:06.275Z,2.57
2023-03-14T19:27:34.460Z,3.13
2023-03-14T19:30:02.482Z,2.60
2023-03-14T19:32:31.741Z,3.07
2023-03-14T19:34:59.630Z,2.30
2023-03-14T19:37:27.814Z,2.73
2023-03-14T19:39:55.621Z,4.17
2023-03-14T19:42:23.422Z,3.53
2023-03-14T19:44:53.580Z,3.20
2023-03-14T19:47:21.396Z,3.27
2023-03-14T19:49:50.625Z,4.67
2023-03-14T19:52:18.810Z,3.63
2023-03-14T19:54:46.656Z,3.50
2023-03-14T19:57:14.451Z,3.47
2023-03-14T19:59:42.487Z,3.53
2023-03-14T20:02:11.119Z,5.30
2023-03-14T20:04:39.017Z,3.43
2023-03-14T20:07:08.559Z,2.60
2023-03-14T20:09:36.584Z,3.20
2023-03-14T20:12:04.575Z,3.30
2023-03-14T20:14:32.664Z,2.77
2023-03-14T20:17:00.684Z,2.50
2023-03-14T20:19:29.538Z,2.97
2023-03-14T20:21:57.556Z,5.03
2023-03-14T20:24:26.784Z,5.63
2023-03-14T20:26:54.779Z,3.03
2023-03-14T20:29:22.797Z,3.87
2023-03-14T20:31:50.640Z,3.77
2023-03-14T20:34:18.546Z,4.30
2023-03-14T20:36:49.009Z,3.57
2023-03-14T20:39:16.871Z,4.03
2023-03-14T20:41:46.184Z,3.63
2023-03-14T20:44:14.476Z,3.60
2023-03-14T20:46:42.541Z,2.90
2023-03-14T20:49:10.771Z,3.73
2023-03-14T20:51:38.987Z,3.43
2023-03-14T20:54:08.928Z,3.43
2023-03-14T20:56:36.868Z,5.20
2023-03-14T20:59:06.227Z,2.87
2023-03-14T21:01:34.680Z,4.00
2023-03-14T21:04:02.597Z,4.30
2023-03-14T21:06:32.663Z,3.70
2023-03-14T21:09:05.468Z,3.30
2023-03-14T21:11:36.525Z,3.97
2023-03-14T21:14:06.175Z,4.33
2023-03-14T21:16:34.262Z,4.07
2023-03-14T21:19:02.305Z,4.90
2023-03-14T21:21:30.158Z,4.20
2023-03-14T21:23:58.110Z,6.93
2023-03-14T21:26:26.113Z,5.97
2023-03-14T21:28:53.981Z,6.03
2023-03-14T21:31:23.332Z,5.37
2023-03-14T21:33:51.806Z,3.83
2023-03-14T21:36:20.534Z,5.10
2023-03-14T21:38:48.558Z,4.87
2023-03-14T21:41:16.541Z,4.70
2023-03-14T21:43:45.926Z,3.53
2023-03-14T21:46:14.172Z,4.73
2023-03-14T21:48:44.189Z,6.23
2023-03-14T21:51:12.055Z,3.63
2023-03-14T21:53:39.896Z,3.80
2023-03-14T21:56:08.159Z,3.80
2023-03-14T21:58:36.737Z,3.57
2023-03-14T22:01:07.269Z,3.13
2023-03-14T22:03:35.960Z,2.47
2023-03-14T22:06:05.638Z,3.33
2023-03-14T22:08:33.493Z,3.17
2023-03-14T22:11:01.488Z,3.93
2023-03-14T22:13:29.327Z,3.30
2023-03-14T22:15:57.259Z,3.43
2023-03-14T22:18:26.140Z,2.10
2023-03-14T22:20:53.988Z,2.57
2023-03-14T22:23:23.199Z,3.00
2023-03-14T22:25:51.625Z,2.60
2023-03-14T22:28:20.077Z,2.53
2023-03-14T22:30:48.954Z,1.87
2023-03-14T22:33:17.414Z,1.93
2023-03-14T22:35:48.901Z,2.97
2023-03-14T22:38:16.901Z,2.30
2023-03-14T22:40:46.651Z,1.50
2023-03-14T22:43:14.463Z,2.17
2023-03-14T22:45:42.289Z,1.97
2023-03-14T22:48:10.451Z,2.30
2023-03-14T22:50:40.237Z,2.47
2023-03-14T22:53:08.188Z,2.03
2023-03-14T22:55:36.327Z,2.97
2023-03-14T22:58:05.773Z,1.60
2023-03-14T23:00:33.737Z,1.43
2023-03-14T23:03:02.118Z,1.30
2023-03-14T23:05:30.083Z,1.20
2023-03-14T23:07:58.012Z,1.53
2023-03-14T23:10:26.133Z,3.07
2023-03-14T23:12:57.559Z,0.80
2023-03-14T23:15:27.438Z,0.93
2023-03-14T23:17:55.356Z,1.30
2023-03-14T23:20:23.283Z,2.40
2023-03-14T23:22:51.526Z,1.10
2023-03-14T23:25:20.161Z,1.00
2023-03-14T23:27:48.007Z,1.10
2023-03-14T23:30:17.014Z,1.00
2023-03-14T23:32:46.311Z,0.87
2023-03-14T23:35:15.511Z,2.97
2023-03-14T23:37:43.671Z,0.80
2023-03-14T23:40:12.728Z,0.63
2023-03-14T23:42:40.547Z,1.00
2023-03-14T23:45:09.490Z,0.80
2023-03-14T23:47:37.412Z,2.73
2023-03-14T23:50:07.617Z,1.27
2023-03-14T23:52:35.762Z,2.70
2023-03-14T23:55:03.710Z,0.97
2023-03-14T23:57:31.554Z,1.50
2023-03-14T23:59:59.580Z,1.50
